Terminal Aerodrome Forecast
Issued by NWS Memphis, TN

Home | Current Version | Previous Version | Text Only | Print | Product List | Glossary On
Versions: 1 2 3 4 5 6 7 8 9 10 11 12 13 14 15 16 17 18 19 20 21 22 23 24
501
FTUS44 KMEG 122338
TAFMEM
TAF
KMEM 122338Z 1300/1324 35008KT P6SM SKC
     FM130400 02014G21KT P6SM SKC
      TEMPO 1305/1307 FEW025
     FM131500 04012KT P6SM SCT100
     FM131900 04008KT P6SM FEW100=

USA.gov is the U.S. government's official web portal to all federal, state and local government web resources and services.